Flight Track Log - Related Links

Times and Time Zones

All times are in EDT time to prevent confusion due to time zone crossing. See the JIA2328 flight status page for this flight to view local times or setup timezone preferences in your user account.

Time Position Orientation Groundspeed Altitude Reporting Facility
EDT Latitude Longitude Course Direction KTS km/h feet Rate Location/Type
Sat 07:45:31 39.8667 -75.2667 37° Northeast 153 283 800  Level Philadelphia TRACON
Sat 07:46:37 39.8333 -75.3333 237° Southwest 196 364 3.200 2.190 Climbing Philadelphia TRACON
Sat 07:47:00 39.8333 -74.9908 90° East  Level FlightAware Approximate
Sat 07:47:37 39.7667 -75.3500 191° South 245 454 5.400  Level Philadelphia TRACON
Sat 07:48:00 39.8167 -74.8705 90° East  Level FlightAware Approximate
Sat 07:48:37 39.7333 -75.2667 117° Southeast 315 583 7.500  Level Philadelphia TRACON
Sat 07:49:00 39.7929 -74.7478 105° East  Level FlightAware Approximate
Sat 07:49:37 39.7500 -75.1500 79° East 320 592 10.000  Level Philadelphia TRACON
Sat 07:50:00 39.8305 -74.6529 37° Northeast  Level FlightAware Approximate
Sat 07:51:41 39.7744 -74.9006 83° East 355 658 12.000  Level New York Center
Sat 07:52:39 39.7892 -74.7744 81° East 374 692 13.400 2.067 Climbing New York Center
Sat 07:53:40 39.8450 -74.6642 57° Northeast 361 668 16.100 2.164 Climbing New York Center
Sat 07:54:41 39.9311 -74.5825 36° Northeast 361 668 17.800 1.916 Climbing New York Center
Sat 07:55:39 40.0236 -74.4925 37° Northeast 366 678 19.900 1.613 Climbing New York Center
Sat 07:56:40 40.1075 -74.4103 37° Northeast 391 724 21.000 1.250 Climbing New York Center
Sat 07:57:39 40.1978 -74.3200 37° Northeast 402 745 22.400 1.017 Climbing New York Center
Sat 07:59:37 40.3850 -74.1292 38° Northeast 413 764 24.000 539 Climbing Boston Center
Sat 08:00:37 40.4947 -74.0447 30° Northeast 440 814 24.000  Level Boston Center
Sat 08:01:37 40.6311 -73.9714 22° Northeast 456 845 24.000  Level Boston Center
Sat 08:02:37 40.7489 -73.8975 25° Northeast 461 855 24.000  Level Boston Center
Sat 08:03:37 40.8522 -73.7928 37° Northeast 461 855 24.000 -150 Level Boston Center
Sat 08:04:37 40.9303 -73.6956 43° Northeast 461 855 23.700 -450 Descending Boston Center
Sat 08:05:37 41.0486 -73.5519 42° Northeast 472 874 23.100 -450 Descending Boston Center
Sat 08:06:37 41.1478 -73.4381 41° Northeast 472 874 22.800 -950 Descending Boston Center
Sat 08:07:37 41.2750 -73.4206 North 442 819 21.200 -1.450 Descending Boston Center
Sat 08:08:37 41.3997 -73.4364 355° North 432 800 19.900 -1.050 Descending Boston Center
Sat 08:09:37 41.5081 -73.4631 350° North 424 785 19.100 -1.150 Descending Boston Center
Sat 08:10:37 41.6031 -73.5311 332° Northwest 385 713 17.600 -1.200 Descending Boston Center
Sat 08:11:37 41.6964 -73.5939 333° Northwest 379 702 16.700 -1.150 Descending Boston Center
Sat 08:12:37 41.7872 -73.6597 332° Northwest 374 692 15.300 -1.600 Descending Boston Center
Sat 08:13:37 41.8847 -73.7172 336° Northwest 374 692 13.500 -1.938 Descending Boston Center
Sat 08:14:13 41.9492 -73.7214 357° North 405 750 12.200 -1.376 Descending Boston Center
Sat 08:15:26 42.0803 -73.7381 355° North 371 687 11.000 -537 Descending Boston Center
Sat 08:16:27 42.1783 -73.7456 357° North 357 661 11.000 -520 Level Boston Center
Sat 08:17:33 42.2844 -73.7592 355° North 321 594 9.900 -1.370 Descending Boston Center
Sat 08:18:34 42.3681 -73.7356 12° North 305 565 8.100 -1.672 Descending Boston Center
Sat 08:19:35 42.4497 -73.7006 18° North 303 562 6.500 -1.388 Descending Boston Center
Sat 08:20:35 42.5272 -73.6683 17° North 292 541 5.300 -1.140 Descending Boston Center
Sat 08:21:36 42.6003 -73.6614 North 258 478 4.200 -645 Descending Boston Center
Sat 08:22:36 42.6689 -73.6656 357° North 237 439 4.000 -197 Descending Boston Center
Sat 08:22:37 42.6689 -73.6656 357° North 250 463 4.000  Level Boston Center
Sat 08:23:37 42.7333 -73.6697 357° North 240 444 4.000  Level Boston Center
Sat 08:24:37 42.7981 -73.6739 357° North 233 431 4.000  Level Boston Center
Sat 08:25:37 42.8542 -73.6778 357° North 233 431 4.000 -310 Level Boston Center
Sat 08:26:33 42.9167 -73.6961 348° North 219 406 3.400 -879 Descending Boston Center
Sat 08:27:33 42.9261 -73.7672 280° West 184 341 2.300 -694 Descending Boston Center
Sat 08:28:34 42.8842 -73.8058 214° Southwest 177 328 2.000 -246 Descending Boston Center
Sat 08:29:35 42.8381 -73.8133 187° South 173 320 1.800 -496 Descending Boston Center
Sat 08:30:35 42.7922 -73.8094 176° South 144 267 1.000 -800 Descending Boston Center

Login

Don't have an account? Register now (free) for customized features, flight alerts, and more!